North Beach, Maryland
Current Conditions -  °F | °C
As of 7:54 AM on Friday 31 Oct 2014 (Local Time) from KNAK Reporting Station
Broken Clouds Broken Clouds  
Wind Chill: 50°   Ceiling: 6000
Heat Index: 50°   Visibility: 10mi
Dew Point: 37°   Wind: 6mph
Humidity: 61%   Direction: 60°ENE
Pressure: 29.99"   Gusts: NA
Location:  38.71°N, 76.53°W
Report Text: KNAK 311154Z AUTO 06005KT 10SM BKN060 10/03 A2999 RMK AO2 SLP158 T01000028 10111 20100 58005
Loading
Personal Weather Stations






























Interactive Weather Map
Tropical Storm Tracking
New forecast layout! Learn more

10-Day Weather Forecast

Advertisements
Track Severe Weather on mobile